createdAt,value
2019-01-09T00:00:42.796Z,260
2019-01-09T00:01:42.781Z,260
2019-01-09T00:02:42.714Z,260
2019-01-09T00:03:42.812Z,260
2019-01-09T00:04:42.747Z,260
2019-01-09T00:05:42.781Z,260
2019-01-09T00:06:42.829Z,260
2019-01-09T00:07:42.713Z,260
2019-01-09T00:08:42.850Z,260.5
2019-01-09T00:09:42.766Z,260.2
2019-01-09T00:10:42.749Z,260.6
2019-01-09T00:11:42.768Z,260.3
2019-01-09T00:12:42.807Z,260.1
2019-01-09T00:13:42.831Z,260.1
2019-01-09T00:14:42.757Z,260
2019-01-09T00:15:42.769Z,260
2019-01-09T00:16:42.840Z,260
2019-01-09T00:17:42.756Z,260
2019-01-09T00:18:42.709Z,260
2019-01-09T00:19:42.720Z,260
2019-01-09T00:20:42.750Z,260
2019-01-09T00:21:42.815Z,260
2019-01-09T00:23:47.397Z,262.9
2019-01-09T00:24:47.338Z,260.9
2019-01-09T00:25:47.255Z,260.4
2019-01-09T00:26:47.240Z,260.2
2019-01-09T00:27:47.254Z,260.1
2019-01-09T00:28:47.314Z,260
2019-01-09T00:29:47.215Z,260
2019-01-09T00:30:47.256Z,260
2019-01-09T00:31:47.285Z,260
2019-01-09T00:32:47.322Z,260
2019-01-09T00:33:47.301Z,260
2019-01-09T00:34:47.269Z,260
2019-01-09T00:35:47.182Z,260
2019-01-09T00:36:47.334Z,260
2019-01-09T00:37:47.273Z,260
2019-01-09T00:38:47.257Z,260
2019-01-09T00:39:47.333Z,260
2019-01-09T00:40:47.397Z,260
2019-01-09T00:41:47.268Z,260
2019-01-09T00:42:47.288Z,260
2019-01-09T00:43:47.338Z,260
2019-01-09T00:44:47.254Z,260
2019-01-09T00:45:47.223Z,260
2019-01-09T00:46:47.216Z,260
2019-01-09T00:47:47.316Z,260
2019-01-09T00:48:47.223Z,260
2019-01-09T00:49:47.338Z,260
2019-01-09T00:50:47.256Z,260
2019-01-09T00:51:47.185Z,260
2019-01-09T00:52:47.254Z,260
2019-01-09T00:53:47.329Z,260
2019-01-09T00:54:47.234Z,260
2019-01-09T00:55:47.237Z,260
2019-01-09T00:56:47.191Z,260
2019-01-09T00:57:47.235Z,260
2019-01-09T00:58:47.316Z,260
2019-01-09T00:59:47.312Z,260
2019-01-09T01:00:47.361Z,260
2019-01-09T01:01:47.253Z,260
2019-01-09T01:02:47.188Z,260
2019-01-09T01:03:48.361Z,260
2019-01-09T01:04:47.302Z,260
2019-01-09T01:05:49.779Z,260
2019-01-09T01:06:47.253Z,260
2019-01-09T01:07:47.334Z,260
2019-01-09T01:08:47.286Z,260
2019-01-09T01:09:47.233Z,260
2019-01-09T01:10:47.254Z,260
2019-01-09T01:11:47.322Z,260
2019-01-09T01:12:47.270Z,260
2019-01-09T01:13:47.198Z,260
2019-01-09T01:14:47.239Z,260
2019-01-09T01:15:47.251Z,260
2019-01-09T01:16:47.314Z,260
2019-01-09T01:17:47.226Z,260
2019-01-09T01:18:47.403Z,260
2019-01-09T01:19:47.168Z,260
2019-01-09T01:20:47.246Z,260
2019-01-09T01:21:47.223Z,260
2019-01-09T01:22:47.267Z,260.5
2019-01-09T01:23:47.368Z,260.2
2019-01-09T01:24:47.193Z,260.1
2019-01-09T01:25:47.239Z,260
2019-01-09T01:26:47.241Z,260
2019-01-09T01:27:47.229Z,260
2019-01-09T01:28:47.303Z,260
2019-01-09T01:29:47.251Z,260
2019-01-09T01:30:47.290Z,260
2019-01-09T01:31:47.261Z,260
2019-01-09T01:32:47.240Z,260
2019-01-09T01:33:47.247Z,260
2019-01-09T01:34:47.221Z,260
2019-01-09T01:35:55.863Z,260
2019-01-09T01:36:47.209Z,260
2019-01-09T01:37:47.216Z,260
2019-01-09T01:38:47.244Z,260
2019-01-09T01:39:47.233Z,260
2019-01-09T01:40:47.227Z,260
2019-01-09T01:41:47.291Z,260
2019-01-09T01:42:47.283Z,260
2019-01-09T01:43:47.251Z,260
2019-01-09T01:44:47.224Z,260
2019-01-09T01:45:47.247Z,260
2019-01-09T01:46:47.159Z,260
2019-01-09T01:47:47.328Z,260
2019-01-09T01:48:47.370Z,260
2019-01-09T01:49:47.237Z,260
2019-01-09T01:50:47.221Z,260
2019-01-09T01:51:47.160Z,260
2019-01-09T01:52:47.202Z,260
2019-01-09T01:53:47.484Z,260
2019-01-09T01:54:47.221Z,260
2019-01-09T01:55:47.227Z,260
2019-01-09T01:56:47.153Z,260
2019-01-09T01:57:47.216Z,260
2019-01-09T01:58:47.320Z,260
2019-01-09T01:59:47.210Z,260
2019-01-09T02:00:47.223Z,260
2019-01-09T02:01:47.200Z,260
2019-01-09T02:02:47.174Z,260
2019-01-09T02:03:47.337Z,260
2019-01-09T02:04:47.219Z,260
2019-01-09T02:05:47.242Z,260
2019-01-09T02:06:47.213Z,260
2019-01-09T02:07:47.165Z,260
2019-01-09T02:08:47.299Z,260
2019-01-09T02:09:47.230Z,260
2019-01-09T02:10:47.198Z,260
2019-01-09T02:11:47.219Z,260
2019-01-09T02:12:47.237Z,260
2019-01-09T02:13:47.239Z,260
2019-01-09T02:14:47.199Z,260
2019-01-09T02:15:47.203Z,260
2019-01-09T02:16:47.204Z,260
2019-01-09T02:17:47.270Z,260
2019-01-09T02:18:47.158Z,260
2019-01-09T02:19:47.235Z,260
2019-01-09T02:20:47.199Z,260
2019-01-09T02:21:47.182Z,260
2019-01-09T02:22:47.225Z,260
2019-01-09T02:23:47.202Z,260
2019-01-09T02:24:47.195Z,260
2019-01-09T02:25:47.197Z,260
2019-01-09T02:26:47.272Z,260
2019-01-09T02:27:47.191Z,260
2019-01-09T02:28:47.282Z,260
2019-01-09T02:29:47.219Z,260
2019-01-09T02:30:47.264Z,260
2019-01-09T02:31:47.298Z,260
2019-01-09T02:32:47.262Z,260
2019-01-09T02:33:47.186Z,260
2019-01-09T02:34:47.264Z,260
2019-01-09T02:35:47.113Z,260
2019-01-09T02:36:47.184Z,260
2019-01-09T02:37:47.285Z,260
2019-01-09T02:38:47.221Z,260
2019-01-09T02:39:48.369Z,260
2019-01-09T02:40:47.127Z,260.5
2019-01-09T02:41:47.189Z,260.2
2019-01-09T02:42:47.270Z,260.1
2019-01-09T02:43:47.205Z,260.1
2019-01-09T02:44:47.214Z,260
2019-01-09T02:45:47.159Z,260
2019-01-09T02:46:47.179Z,260
2019-01-09T02:47:47.250Z,260
2019-01-09T02:48:50.010Z,260
2019-01-09T02:49:47.283Z,260
2019-01-09T02:50:47.179Z,260
2019-01-09T02:51:47.139Z,260
2019-01-09T02:52:47.212Z,260
2019-01-09T02:53:47.288Z,260
2019-01-09T02:54:47.188Z,260
2019-01-09T02:55:47.266Z,260
2019-01-09T02:56:47.159Z,260
2019-01-09T02:57:56.176Z,260
2019-01-09T02:58:47.207Z,260
2019-01-09T02:59:47.184Z,260
2019-01-09T03:00:47.271Z,260
2019-01-09T03:01:47.229Z,260
2019-01-09T03:02:47.193Z,260
2019-01-09T03:03:47.199Z,260
2019-01-09T03:04:48.683Z,260
2019-01-09T03:05:47.202Z,260
2019-01-09T03:06:47.207Z,260
2019-01-09T03:07:47.140Z,260
2019-01-09T03:08:47.137Z,260
2019-01-09T03:09:47.232Z,260
2019-01-09T03:10:47.176Z,260
2019-01-09T03:11:47.177Z,260
2019-01-09T03:12:47.206Z,260
2019-01-09T03:13:47.208Z,260
2019-01-09T03:14:47.180Z,260
2019-01-09T03:15:47.323Z,260
2019-01-09T03:16:47.210Z,260
2019-01-09T03:17:47.253Z,260
2019-01-09T03:18:47.108Z,260
2019-01-09T03:19:47.298Z,260
2019-01-09T03:20:47.176Z,260
2019-01-09T03:21:47.221Z,260
2019-01-09T03:22:47.194Z,260
2019-01-09T03:23:47.182Z,260
2019-01-09T03:24:47.105Z,260
2019-01-09T03:25:47.314Z,260
2019-01-09T03:26:47.181Z,260
2019-01-09T03:27:47.189Z,260
2019-01-09T03:28:47.145Z,260
2019-01-09T03:29:47.122Z,260
2019-01-09T03:30:47.255Z,260
2019-01-09T03:31:47.209Z,260
2019-01-09T03:32:47.199Z,260
2019-01-09T03:33:47.200Z,260
2019-01-09T03:34:47.206Z,260
2019-01-09T03:35:47.169Z,260
2019-01-09T03:36:47.170Z,260
2019-01-09T03:37:47.174Z,260
2019-01-09T03:38:47.165Z,260
2019-01-09T03:39:47.220Z,260
2019-01-09T03:40:47.176Z,260
2019-01-09T03:41:47.174Z,260
2019-01-09T03:42:47.172Z,260
2019-01-09T03:43:47.183Z,260
2019-01-09T03:44:47.165Z,260
2019-01-09T03:45:47.147Z,260
2019-01-09T03:46:47.156Z,260
2019-01-09T03:47:47.155Z,260
2019-01-09T03:48:47.250Z,260
2019-01-09T03:49:47.176Z,260
2019-01-09T03:50:47.158Z,260
2019-01-09T03:51:47.184Z,260
2019-01-09T03:52:47.214Z,260
2019-01-09T03:53:47.216Z,260
2019-01-09T03:54:47.175Z,260
2019-01-09T03:55:47.170Z,260
2019-01-09T03:56:47.103Z,260
2019-01-09T03:57:47.227Z,260
2019-01-09T03:58:47.147Z,260
2019-01-09T03:59:47.151Z,260
2019-01-09T04:00:47.159Z,260
2019-01-09T04:01:47.201Z,260
2019-01-09T04:02:47.194Z,260
2019-01-09T04:03:47.185Z,260
2019-01-09T04:04:47.162Z,260
2019-01-09T04:05:47.158Z,260
2019-01-09T04:06:47.228Z,260
2019-01-09T04:07:47.086Z,260
2019-01-09T04:08:47.107Z,260
2019-01-09T04:09:47.165Z,260
2019-01-09T04:10:47.169Z,260
2019-01-09T04:11:47.239Z,260
2019-01-09T04:12:47.299Z,260
2019-01-09T04:13:47.118Z,260
2019-01-09T04:14:47.145Z,260
2019-01-09T04:15:47.159Z,260
2019-01-09T04:16:47.142Z,260
2019-01-09T04:17:47.199Z,260
2019-01-09T04:18:47.106Z,260
2019-01-09T04:19:47.218Z,260
2019-01-09T04:20:47.175Z,260
2019-01-09T04:21:47.147Z,260
2019-01-09T04:22:47.162Z,260
2019-01-09T04:23:47.211Z,260
2019-01-09T04:24:47.167Z,260
2019-01-09T04:25:47.268Z,260
2019-01-09T04:26:47.152Z,260
2019-01-09T04:27:47.154Z,260
2019-01-09T04:28:47.174Z,260
2019-01-09T04:29:47.147Z,260
2019-01-09T04:30:47.144Z,260
2019-01-09T04:31:47.138Z,260
2019-01-09T04:32:47.210Z,260
2019-01-09T04:33:47.197Z,260
2019-01-09T04:34:47.167Z,260
2019-01-09T04:35:47.130Z,260
2019-01-09T04:36:55.262Z,260
2019-01-09T04:37:47.139Z,260
2019-01-09T04:38:47.132Z,260
2019-01-09T04:39:47.192Z,260
2019-01-09T04:40:48.930Z,260
2019-01-09T04:41:47.120Z,260
2019-01-09T04:42:47.188Z,260
2019-01-09T04:43:47.149Z,260
2019-01-09T04:44:47.225Z,260
2019-01-09T04:45:47.089Z,260
2019-01-09T04:46:47.193Z,260
2019-01-09T04:47:47.128Z,260
2019-01-09T04:48:47.149Z,260
2019-01-09T04:49:47.122Z,260
2019-01-09T04:50:47.306Z,260
2019-01-09T04:51:47.139Z,260
2019-01-09T04:52:47.131Z,260
2019-01-09T04:53:47.165Z,260
2019-01-09T04:54:47.130Z,260
2019-01-09T04:55:47.206Z,260
2019-01-09T04:56:47.085Z,260
2019-01-09T04:57:47.127Z,260
2019-01-09T04:58:47.133Z,260
2019-01-09T04:59:47.140Z,260
2019-01-09T05:00:47.159Z,260
2019-01-09T05:01:47.128Z,260
2019-01-09T05:02:47.058Z,260
2019-01-09T05:03:47.146Z,260
2019-01-09T05:04:49.322Z,260
2019-01-09T05:05:47.140Z,260
2019-01-09T05:06:47.145Z,260
2019-01-09T05:07:47.080Z,260
2019-01-09T05:08:47.158Z,260
2019-01-09T05:09:47.138Z,260
2019-01-09T05:10:47.156Z,260
2019-01-09T05:11:47.159Z,260
2019-01-09T05:12:48.187Z,260
2019-01-09T05:13:47.117Z,260
2019-01-09T05:14:47.192Z,260
2019-01-09T05:15:47.155Z,260
2019-01-09T05:16:47.119Z,260
2019-01-09T05:17:47.117Z,260
2019-01-09T05:18:47.130Z,260
2019-01-09T05:19:47.125Z,260
2019-01-09T05:20:47.119Z,260
2019-01-09T05:21:47.096Z,260
2019-01-09T05:22:49.404Z,260
2019-01-09T05:23:47.276Z,260.5
2019-01-09T05:24:49.132Z,260.2
2019-01-09T05:25:47.186Z,260.1
2019-01-09T05:26:47.098Z,260
2019-01-09T05:27:47.339Z,260
2019-01-09T05:28:47.136Z,260
2019-01-09T05:29:47.252Z,260
2019-01-09T05:30:47.192Z,260
2019-01-09T05:31:47.180Z,260
2019-01-09T05:32:47.168Z,260
2019-01-09T05:33:47.266Z,260
2019-01-09T05:34:47.161Z,260
2019-01-09T05:35:47.290Z,260
2019-01-09T05:36:47.132Z,260
2019-01-09T05:37:47.264Z,260
2019-01-09T05:38:47.257Z,260
2019-01-09T05:39:47.411Z,260
2019-01-09T05:40:47.201Z,260
2019-01-09T05:41:47.156Z,260
2019-01-09T05:42:47.474Z,260
2019-01-09T05:43:47.057Z,260
2019-01-09T05:44:47.103Z,260
2019-01-09T05:45:47.114Z,260
2019-01-09T05:46:47.188Z,260
2019-01-09T05:47:47.163Z,260
2019-01-09T05:48:47.399Z,260
2019-01-09T05:49:47.169Z,260
2019-01-09T05:50:47.208Z,260
2019-01-09T05:51:47.047Z,260
2019-01-09T05:52:47.112Z,260
2019-01-09T05:53:47.111Z,260
2019-01-09T05:54:47.094Z,260
2019-01-09T05:55:47.163Z,260
2019-01-09T05:56:47.074Z,260
2019-01-09T05:57:47.027Z,260
2019-01-09T05:58:47.121Z,260
2019-01-09T05:59:47.239Z,260
2019-01-09T06:00:47.076Z,260
2019-01-09T06:01:47.110Z,260
2019-01-09T06:02:47.053Z,260
2019-01-09T06:03:47.140Z,260
2019-01-09T06:04:47.184Z,260
2019-01-09T06:05:47.090Z,260
2019-01-09T06:06:47.162Z,260
2019-01-09T06:07:47.025Z,260
2019-01-09T06:08:47.182Z,260.5
2019-01-09T06:09:47.150Z,272.2
2019-01-09T06:10:47.065Z,277.8
2019-01-09T06:11:47.089Z,280.3
2019-01-09T06:12:47.077Z,281.5
2019-01-09T06:13:47.137Z,282
2019-01-09T06:14:47.140Z,282.3
2019-01-09T06:15:47.135Z,282.4
2019-01-09T06:16:47.135Z,282.5
2019-01-09T06:17:47.196Z,282.5
2019-01-09T06:18:47.107Z,282.5
2019-01-09T06:19:47.107Z,282.5
2019-01-09T06:20:47.121Z,282.5
2019-01-09T06:21:47.077Z,282.5
2019-01-09T06:22:47.126Z,282.5
2019-01-09T06:23:47.130Z,282.5
2019-01-09T06:24:47.037Z,282.5
2019-01-09T06:25:47.146Z,282.5
2019-01-09T06:26:47.105Z,282.5
2019-01-09T06:27:47.096Z,282.5
2019-01-09T06:28:47.161Z,282.5
2019-01-09T06:29:47.039Z,282.5
2019-01-09T06:30:47.079Z,282.5
2019-01-09T06:31:47.107Z,282.5
2019-01-09T06:32:47.124Z,282.5
2019-01-09T06:33:47.156Z,282.5
2019-01-09T06:34:47.040Z,282.5
2019-01-09T06:35:47.071Z,282.5
2019-01-09T06:36:47.132Z,282.5
2019-01-09T06:37:47.073Z,282.5
2019-01-09T06:38:47.061Z,282.5
2019-01-09T06:39:47.053Z,282.5
2019-01-09T06:40:46.979Z,282.5
2019-01-09T06:41:47.147Z,282.5
2019-01-09T06:42:47.151Z,282.5
2019-01-09T06:43:47.095Z,282.5
2019-01-09T06:44:47.073Z,282.5
2019-01-09T06:45:47.171Z,282.5
2019-01-09T06:46:47.148Z,282.5
2019-01-09T06:47:47.070Z,282.5
2019-01-09T06:48:47.072Z,282.5
2019-01-09T06:49:47.070Z,282.5
2019-01-09T06:50:47.082Z,282.5
2019-01-09T06:51:47.073Z,282.5
2019-01-09T06:52:47.082Z,282.5
2019-01-09T06:53:47.081Z,282.5
2019-01-09T06:54:47.275Z,282.5
2019-01-09T06:55:47.110Z,282.5
2019-01-09T06:56:47.019Z,282.5
2019-01-09T06:57:47.085Z,282.5
2019-01-09T06:58:47.083Z,282.5
2019-01-09T06:59:47.082Z,282.5
2019-01-09T07:00:47.125Z,282.5
2019-01-09T07:01:48.217Z,282.5
2019-01-09T07:02:47.024Z,282.5
2019-01-09T07:03:47.103Z,282.5
2019-01-09T07:04:48.289Z,282.5
2019-01-09T07:05:47.054Z,282.5
2019-01-09T07:06:47.089Z,283.4
2019-01-09T07:07:47.069Z,282.9
2019-01-09T07:08:47.251Z,282.7
2019-01-09T07:09:47.063Z,282.6
2019-01-09T07:10:47.045Z,282.5
2019-01-09T07:11:47.301Z,282.5
2019-01-09T07:12:47.043Z,282.5
2019-01-09T07:13:46.997Z,282.5
2019-01-09T07:14:47.166Z,282.5
2019-01-09T07:15:47.060Z,282.5
2019-01-09T07:16:47.117Z,282.5
2019-01-09T07:17:47.063Z,282.5
2019-01-09T07:18:46.990Z,282.5
2019-01-09T07:19:47.055Z,282.5
2019-01-09T07:20:47.089Z,282.5
2019-01-09T07:21:49.233Z,282.5
2019-01-09T07:22:47.042Z,282.5
2019-01-09T07:23:47.029Z,282.5
2019-01-09T07:24:47.149Z,282.5
2019-01-09T07:25:47.058Z,282.5
2019-01-09T07:26:47.039Z,282.5
2019-01-09T07:27:47.061Z,282.5
2019-01-09T07:28:47.025Z,282.5
2019-01-09T07:29:47.051Z,282.5
2019-01-09T07:30:47.044Z,282.5
2019-01-09T07:31:47.033Z,283.1
2019-01-09T07:32:47.147Z,282.8
2019-01-09T07:33:47.094Z,282.6
2019-01-09T07:34:47.067Z,282.6
2019-01-09T07:35:47.187Z,282.5
2019-01-09T07:36:47.046Z,282.5
2019-01-09T07:37:48.772Z,282.5
2019-01-09T07:38:47.044Z,282.5
2019-01-09T07:39:47.055Z,282.5
2019-01-09T07:40:47.058Z,283.2
2019-01-09T07:41:47.095Z,282.8
2019-01-09T07:42:47.044Z,282.7
2019-01-09T07:43:47.054Z,282.6
2019-01-09T07:44:47.115Z,282.5
2019-01-09T07:45:46.989Z,283.2
2019-01-09T07:46:47.108Z,282.8
2019-01-09T07:47:47.043Z,282.7
2019-01-09T07:48:47.069Z,282.6
2019-01-09T07:49:47.127Z,282.5
2019-01-09T07:50:47.096Z,282.5
2019-01-09T07:51:46.983Z,282.5
2019-01-09T07:52:47.062Z,282.5
2019-01-09T07:53:47.144Z,282.5
2019-01-09T07:54:47.066Z,282.5
2019-01-09T07:55:47.121Z,282.5
2019-01-09T07:56:46.993Z,282.5
2019-01-09T07:57:47.015Z,282.5
2019-01-09T07:58:47.038Z,282.5
2019-01-09T07:59:47.112Z,282.5
2019-01-09T08:00:47.051Z,282.5
2019-01-09T08:01:47.089Z,282.5
2019-01-09T08:02:47.034Z,282.5
2019-01-09T08:03:47.067Z,282.5
2019-01-09T08:04:47.095Z,282.5
2019-01-09T08:05:47.063Z,282.5
2019-01-09T08:06:47.142Z,282.5
2019-01-09T08:07:56.075Z,282.5
2019-01-09T08:08:47.035Z,282.5
2019-01-09T08:09:47.034Z,282.5
2019-01-09T08:10:47.016Z,282.5
2019-01-09T08:11:49.021Z,282.5
2019-01-09T08:12:46.954Z,282.5
2019-01-09T08:13:47.129Z,282.5
2019-01-09T08:14:47.009Z,283.1
2019-01-09T08:15:47.020Z,282.8
2019-01-09T08:16:47.009Z,282.6
2019-01-09T08:17:47.085Z,282.6
2019-01-09T08:18:48.316Z,282.5
2019-01-09T08:19:47.017Z,283.5
2019-01-09T08:20:47.032Z,283
2019-01-09T08:21:47.029Z,282.7
2019-01-09T08:22:47.127Z,282.6
2019-01-09T08:23:46.962Z,282.5
2019-01-09T08:24:46.956Z,289.6
2019-01-09T08:25:47.054Z,297.9
2019-01-09T08:26:47.049Z,301.7
2019-01-09T08:27:47.121Z,303.5
2019-01-09T08:28:47.031Z,304.3
2019-01-09T08:29:46.961Z,304.7
2019-01-09T08:30:47.090Z,304.8
2019-01-09T08:31:47.026Z,304.9
2019-01-09T08:32:49.184Z,305
2019-01-09T08:33:47.033Z,304.7
2019-01-09T08:34:46.976Z,304.9
2019-01-09T08:35:47.031Z,304.9
2019-01-09T08:36:47.013Z,305
2019-01-09T08:37:47.030Z,305
2019-01-09T08:38:47.014Z,305
2019-01-09T08:39:47.078Z,305
2019-01-09T08:40:46.966Z,305
2019-01-09T08:41:47.014Z,305
2019-01-09T08:42:47.096Z,305
2019-01-09T08:43:47.114Z,305
2019-01-09T08:44:47.028Z,305
2019-01-09T08:45:47.005Z,305
2019-01-09T08:46:47.082Z,305
2019-01-09T08:47:47.027Z,305
2019-01-09T08:48:46.999Z,305
2019-01-09T08:49:47.148Z,305
2019-01-09T08:50:47.545Z,305
2019-01-09T08:51:46.935Z,305
2019-01-09T08:52:47.005Z,305
2019-01-09T08:53:47.088Z,305
2019-01-09T08:54:47.081Z,305
2019-01-09T08:55:47.015Z,304.7
2019-01-09T08:56:47.032Z,304.9
2019-01-09T08:57:46.986Z,304.9
2019-01-09T08:58:46.991Z,305
2019-01-09T08:59:47.060Z,305
2019-01-09T09:00:47.003Z,305
2019-01-09T09:01:46.993Z,305
2019-01-09T09:02:47.061Z,305
2019-01-09T09:03:46.995Z,305
2019-01-09T09:04:47.118Z,305
2019-01-09T09:05:47.000Z,305
2019-01-09T09:06:46.991Z,304.6
2019-01-09T09:07:46.999Z,304.8
2019-01-09T09:08:47.009Z,304.9
2019-01-09T09:09:47.021Z,305
2019-01-09T09:10:47.047Z,305
2019-01-09T09:11:46.998Z,305
2019-01-09T09:12:47.103Z,305
2019-01-09T09:13:47.045Z,305
2019-01-09T09:14:47.034Z,305
2019-01-09T09:15:47.003Z,305
2019-01-09T09:16:47.004Z,305
2019-01-09T09:17:47.048Z,305
2019-01-09T09:18:47.008Z,305
2019-01-09T09:19:46.996Z,305
2019-01-09T09:20:46.992Z,305
2019-01-09T09:21:47.000Z,305
2019-01-09T09:22:49.148Z,305
2019-01-09T09:23:47.032Z,311.5
2019-01-09T09:24:47.064Z,308
2019-01-09T09:25:46.993Z,306.4
2019-01-09T09:26:47.058Z,305.6
2019-01-09T09:27:46.988Z,305.3
2019-01-09T09:28:46.990Z,305.1
2019-01-09T09:29:46.996Z,305.1
2019-01-09T09:30:47.007Z,305
2019-01-09T09:31:46.998Z,305
2019-01-09T09:32:47.010Z,305
2019-01-09T09:33:47.040Z,305
2019-01-09T09:34:47.003Z,308.9
2019-01-09T09:35:46.994Z,308.3
2019-01-09T09:36:46.998Z,310.1
2019-01-09T09:37:47.022Z,311.3
2019-01-09T09:38:46.978Z,307.9
2019-01-09T09:39:47.148Z,306.4
2019-01-09T09:40:46.921Z,305.6
2019-01-09T09:41:46.982Z,305.3
2019-01-09T09:42:46.972Z,305.1
2019-01-09T09:43:46.994Z,308.2
2019-01-09T09:44:47.069Z,307.6
2019-01-09T09:45:46.926Z,308.4
2019-01-09T09:46:47.080Z,306.6
2019-01-09T09:47:47.061Z,308.4
2019-01-09T09:48:46.984Z,316.2
2019-01-09T09:49:46.983Z,312.8
2019-01-09T09:50:46.998Z,320.8
2019-01-09T09:51:46.922Z,326.7
2019-01-09T09:52:47.085Z,316.6
2019-01-09T09:53:47.970Z,310.9
2019-01-09T09:54:47.052Z,307.7
2019-01-09T09:55:46.989Z,311.7
2019-01-09T09:56:46.909Z,310.5
2019-01-09T09:57:47.053Z,308.8
2019-01-09T09:58:47.001Z,308.4
2019-01-09T09:59:47.153Z,308.7
2019-01-09T10:00:47.038Z,310
2019-01-09T10:01:46.932Z,310.3
2019-01-09T10:02:47.002Z,308
2019-01-09T10:03:47.065Z,306.4
2019-01-09T10:04:47.063Z,306
2019-01-09T10:05:47.036Z,308.7
2019-01-09T10:06:46.957Z,316.6
2019-01-09T10:07:46.910Z,315
2019-01-09T10:08:47.017Z,323.2
2019-01-09T10:09:46.987Z,321.5
2019-01-09T10:10:46.981Z,314.5
2019-01-09T10:11:46.975Z,315.2
2019-01-09T10:12:47.025Z,309.6
2019-01-09T10:13:46.977Z,307.2
2019-01-09T10:14:46.984Z,311.6
2019-01-09T10:15:48.654Z,312.4
2019-01-09T10:16:46.971Z,317.4
2019-01-09T10:17:47.028Z,319.6
2019-01-09T10:18:46.914Z,316.3
2019-01-09T10:19:47.046Z,315.3
2019-01-09T10:20:46.982Z,319.6
2019-01-09T10:21:46.986Z,322
2019-01-09T10:22:47.146Z,323.6
2019-01-09T10:23:47.021Z,313.5
2019-01-09T10:24:46.960Z,308.8
2019-01-09T10:25:47.112Z,310.9
2019-01-09T10:26:46.979Z,317
2019-01-09T10:27:46.964Z,322.2
2019-01-09T10:28:46.996Z,323.3
2019-01-09T10:29:46.908Z,323.7
2019-01-09T10:30:47.019Z,320.3
2019-01-09T10:31:47.044Z,315.2
2019-01-09T10:32:46.963Z,320.7
2019-01-09T10:33:47.057Z,328.2
2019-01-09T10:34:46.921Z,319.4
2019-01-09T10:35:47.114Z,320.6
2019-01-09T10:36:46.959Z,317.8
2019-01-09T10:37:47.137Z,312.3
2019-01-09T10:38:48.137Z,312.2
2019-01-09T10:39:46.997Z,314
2019-01-09T10:40:46.974Z,309.2
2019-01-09T10:41:47.125Z,307.7
2019-01-09T10:42:46.958Z,312.1
2019-01-09T10:43:47.058Z,313.3
2019-01-09T10:44:46.951Z,308.9
2019-01-09T10:45:46.901Z,306.8
2019-01-09T10:46:46.968Z,305.8
2019-01-09T10:47:46.953Z,305.4
2019-01-09T10:48:47.005Z,305.2
2019-01-09T10:49:46.933Z,305.9
2019-01-09T10:50:46.974Z,305.4
2019-01-09T10:51:47.262Z,305.2
2019-01-09T10:52:46.993Z,305.1
2019-01-09T10:53:47.088Z,312.5
2019-01-09T10:54:46.961Z,320.1
2019-01-09T10:55:46.933Z,323.5
2019-01-09T10:56:46.960Z,324.3
2019-01-09T10:57:46.958Z,314.3
2019-01-09T10:58:46.942Z,309.3
2019-01-09T10:59:46.943Z,306.9
2019-01-09T11:00:46.939Z,305.9
2019-01-09T11:01:46.974Z,305.4
2019-01-09T11:02:46.917Z,305.5
2019-01-09T11:03:46.978Z,305.2
2019-01-09T11:04:46.967Z,305.1
2019-01-09T11:05:47.014Z,305.1
2019-01-09T11:06:46.926Z,309.6
2019-01-09T11:07:46.926Z,312.2
2019-01-09T11:08:50.781Z,308.3
2019-01-09T11:09:46.938Z,308.2
2019-01-09T11:10:46.985Z,310.9
2019-01-09T11:11:46.936Z,309.2
2019-01-09T11:12:46.913Z,308.3
2019-01-09T11:13:46.928Z,310.9
2019-01-09T11:14:47.016Z,308.1
2019-01-09T11:15:46.945Z,313
2019-01-09T11:16:46.933Z,313.1
2019-01-09T11:17:47.048Z,315.5
2019-01-09T11:18:46.867Z,314.7
2019-01-09T11:19:46.995Z,310
2019-01-09T11:20:46.931Z,320.6
2019-01-09T11:21:46.963Z,322.7
2019-01-09T11:22:46.940Z,321.2
2019-01-09T11:23:46.890Z,314
2019-01-09T11:24:47.044Z,319.1
2019-01-09T11:25:46.953Z,320.5
2019-01-09T11:26:46.946Z,324.8
2019-01-09T11:27:46.981Z,326.9
2019-01-09T11:28:46.912Z,323.6
2019-01-09T11:29:46.934Z,329.3
2019-01-09T11:30:46.939Z,329.1
2019-01-09T11:31:46.932Z,332.5
2019-01-09T11:32:46.938Z,334
2019-01-09T11:33:46.954Z,339.1
2019-01-09T11:34:46.932Z,338.1
2019-01-09T11:35:46.944Z,343.2
2019-01-09T11:36:47.020Z,343
2019-01-09T11:37:46.978Z,334.6
2019-01-09T11:38:55.419Z,330.8
2019-01-09T11:39:47.011Z,328.4
2019-01-09T11:40:46.879Z,329.8
2019-01-09T11:41:46.933Z,319.5
2019-01-09T11:42:47.024Z,311.7
2019-01-09T11:43:46.972Z,319.3
2019-01-09T11:44:46.947Z,319
2019-01-09T11:45:46.925Z,327.9
2019-01-09T11:46:47.831Z,333.3
2019-01-09T11:47:48.419Z,330.1
2019-01-09T11:48:46.885Z,331.8
2019-01-09T11:49:51.856Z,333.2
2019-01-09T11:50:46.877Z,326.3
2019-01-09T11:51:47.078Z,326.5
2019-01-09T11:52:46.916Z,331.6
2019-01-09T11:53:47.033Z,328.1
2019-01-09T11:54:47.023Z,324.8
2019-01-09T11:55:46.931Z,325.8
2019-01-09T11:56:46.904Z,330.4
2019-01-09T11:57:46.978Z,329.9
2019-01-09T11:58:46.923Z,333
2019-01-09T11:59:46.897Z,328.9
2019-01-09T12:00:52.351Z,328.2
2019-01-09T12:01:47.117Z,325.2
2019-01-09T12:02:47.338Z,316.8
2019-01-09T12:03:47.349Z,310.4
2019-01-09T12:04:47.120Z,307.5
2019-01-09T12:05:46.972Z,306.2
2019-01-09T12:06:47.078Z,305.5
2019-01-09T12:07:47.216Z,315.4
2019-01-09T12:08:47.076Z,325.1
2019-01-09T12:09:47.185Z,319.9
2019-01-09T12:10:47.178Z,311.7
2019-01-09T12:11:46.910Z,308.2
2019-01-09T12:12:47.026Z,309.1
2019-01-09T12:13:46.877Z,321.6
2019-01-09T12:14:47.024Z,317
2019-01-09T12:15:46.913Z,323.6
2019-01-09T12:16:46.912Z,330.8
2019-01-09T12:17:46.937Z,329.7
2019-01-09T12:18:46.853Z,327.5
2019-01-09T12:19:46.961Z,315.6
2019-01-09T12:20:46.931Z,309.9
2019-01-09T12:21:46.923Z,307.3
2019-01-09T12:22:47.678Z,306.1
2019-01-09T12:23:47.179Z,305.5
2019-01-09T12:24:47.057Z,305.2
2019-01-09T12:25:47.194Z,305.1
2019-01-09T12:26:47.081Z,305.1
2019-01-09T12:27:47.015Z,305
2019-01-09T12:28:56.000Z,305
2019-01-09T12:29:46.991Z,305
2019-01-09T12:30:47.111Z,305
2019-01-09T12:31:47.201Z,309.7
2019-01-09T12:32:46.894Z,319.3
2019-01-09T12:33:46.931Z,322.1
2019-01-09T12:34:46.829Z,330.9
2019-01-09T12:35:46.982Z,325.3
2019-01-09T12:36:46.905Z,314.2
2019-01-09T12:37:46.884Z,310.3
2019-01-09T12:38:46.913Z,315.1
2019-01-09T12:39:46.819Z,319.8
2019-01-09T12:40:46.901Z,324.9
2019-01-09T12:41:46.841Z,325.5
2019-01-09T12:42:46.881Z,330.5
2019-01-09T12:43:47.197Z,329.9
2019-01-09T12:44:46.880Z,326.7
2019-01-09T12:45:46.828Z,323.1
2019-01-09T12:46:46.955Z,322.4
2019-01-09T12:47:46.903Z,324.8
2019-01-09T12:48:46.898Z,330.6
2019-01-09T12:49:46.963Z,327.3
2019-01-09T12:50:46.836Z,315.6
2019-01-09T12:51:46.887Z,310.4
2019-01-09T12:52:47.103Z,318.5
2019-01-09T12:53:46.868Z,317.2
2019-01-09T12:54:46.901Z,332.8
2019-01-09T12:55:46.881Z,329.7
2019-01-09T12:56:46.855Z,328.5
2019-01-09T12:57:46.975Z,315.9
2019-01-09T12:58:46.884Z,310
2019-01-09T12:59:46.878Z,307.8
2019-01-09T13:00:46.911Z,324.8
2019-01-09T13:01:46.830Z,323.9
2019-01-09T13:02:46.915Z,333.5
2019-01-09T13:03:46.907Z,341.2
2019-01-09T13:04:46.975Z,338.5
2019-01-09T13:05:46.868Z,342.7
2019-01-09T13:06:46.932Z,344.9
2019-01-09T13:07:46.853Z,344.3
2019-01-09T13:08:46.873Z,346.8
2019-01-09T13:09:46.976Z,346.5
2019-01-09T13:10:46.871Z,347
2019-01-09T13:11:46.892Z,347.8
2019-01-09T13:12:46.837Z,346.3
2019-01-09T13:13:46.905Z,347.7
2019-01-09T13:14:46.874Z,332.7
2019-01-09T13:15:46.864Z,317.2
2019-01-09T13:16:51.554Z,322.4
2019-01-09T13:17:46.871Z,331.1
2019-01-09T13:18:46.916Z,339.3
2019-01-09T13:19:46.866Z,340.6
2019-01-09T13:20:46.872Z,344.7